Time;durP1;ratioP1;P1;durP2;ratioP2;P2;SDS_P1;SDS_P2;PMS_P1;PMS_P2;Temp;Humidity;BMP_temperature;BMP_pressure;BME280_temperature;BME280_humidity;BME280_pressure;Samples;Min_cycle;Max_cycle;Signal;HPM_P1;HPM_P2
2021/09/18 00:00:06;;;;;;;25.10;22.60;;;;;;;12.84;95.68;100927.94;695133;28;1043;-55
2021/09/18 00:00:26;;;;;;;24.63;22.13;;;;;;;12.91;95.33;100927.00;695116;28;1080;-56
2021/09/18 00:00:47;;;;;;;24.63;22.23;;;;;;;12.95;94.95;100936.56;694915;28;972;-54
2021/09/18 00:01:07;;;;;;;24.70;22.30;;;;;;;12.98;94.93;100930.41;693436;28;4847;-53
2021/09/18 00:01:27;;;;;;;24.75;22.20;;;;;;;13.00;94.61;100936.50;694173;28;1448;-55
2021/09/18 00:01:48;;;;;;;25.00;22.47;;;;;;;12.98;94.33;100930.41;694466;28;1418;-56
2021/09/18 00:02:08;;;;;;;25.15;22.63;;;;;;;12.95;94.88;100929.56;694461;28;1192;-57
2021/09/18 00:02:29;;;;;;;25.53;22.93;;;;;;;12.93;94.95;100930.44;695205;28;1014;-52
2021/09/18 00:02:49;;;;;;;25.67;23.17;;;;;;;12.90;95.05;100926.13;694650;28;1214;-52
2021/09/18 00:03:09;;;;;;;25.95;23.35;;;;;;;12.91;94.87;100929.63;694506;28;1283;-53
2021/09/18 00:03:30;;;;;;;25.30;22.77;;;;;;;12.85;94.78;100934.91;693102;28;1107;-55
2021/09/18 00:03:50;;;;;;;26.00;23.40;;;;;;;12.79;95.42;100927.97;694401;28;1163;-54
2021/09/18 00:04:11;;;;;;;26.23;23.67;;;;;;;12.83;95.29;100932.28;693961;28;4880;-55
2021/09/18 00:04:32;;;;;;;26.38;23.67;;;;;;;12.87;95.39;100926.13;693592;28;3251;-56
2021/09/18 00:04:52;;;;;;;25.27;22.83;;;;;;;12.91;95.29;100933.09;691744;28;1432;-56
2021/09/18 00:05:13;;;;;;;25.20;22.70;;;;;;;12.94;94.69;100934.81;691810;28;1184;-57
2021/09/18 00:05:33;;;;;;;24.90;22.40;;;;;;;12.92;94.59;100928.75;691522;28;1233;-57
2021/09/18 00:05:53;;;;;;;24.63;22.23;;;;;;;12.94;94.33;100929.56;691279;28;1219;-54
2021/09/18 00:06:14;;;;;;;25.10;22.50;;;;;;;12.97;94.54;100929.53;692080;28;1134;-57
2021/09/18 00:06:34;;;;;;;26.43;23.83;;;;;;;12.97;94.51;100937.41;692179;28;1227;-54
2021/09/18 00:06:55;;;;;;;26.75;24.05;;;;;;;12.92;94.68;100937.47;695155;28;1064;-53
2021/09/18 00:07:15;;;;;;;26.50;23.67;;;;;;;12.90;95.11;100931.38;694507;28;4457;-52
2021/09/18 00:07:36;;;;;;;26.15;23.50;;;;;;;12.90;95.11;100925.25;694530;28;900;-52
2021/09/18 00:07:57;;;;;;;25.90;23.30;;;;;;;12.88;94.96;100938.38;695172;28;3624;-56
2021/09/18 00:08:17;;;;;;;25.67;22.95;;;;;;;12.89;94.87;100931.38;693371;28;3676;-55
2021/09/18 00:08:38;;;;;;;25.55;22.95;;;;;;;12.91;94.87;100930.47;694079;28;1380;-55
2021/09/18 00:08:58;;;;;;;25.37;22.87;;;;;;;12.91;95.21;100927.00;694573;28;1981;-53
2021/09/18 00:09:18;;;;;;;26.27;23.63;;;;;;;12.86;95.05;100929.66;695158;28;1045;-55
2021/09/18 00:09:39;;;;;;;27.03;24.33;;;;;;;12.84;95.54;100931.41;693830;28;1399;-52
2021/09/18 00:09:59;;;;;;;26.67;23.97;;;;;;;12.84;95.25;100931.41;695350;28;1106;-55
2021/09/18 00:10:19;;;;;;;26.87;24.07;;;;;;;12.82;94.98;100933.22;693845;28;4455;-53
2021/09/18 00:10:40;;;;;;;26.33;23.63;;;;;;;12.83;95.73;100931.44;694606;28;1081;-53
2021/09/18 00:11:01;;;;;;;25.63;23.02;;;;;;;12.81;95.84;100931.47;694070;28;1305;-55
2021/09/18 00:11:21;;;;;;;26.35;23.73;;;;;;;12.77;95.84;100932.38;694896;28;3465;-57
2021/09/18 00:11:41;;;;;;;26.60;23.90;;;;;;;12.74;95.82;100929.78;693969;28;2396;-53
2021/09/18 00:12:02;;;;;;;26.90;24.20;;;;;;;12.74;95.88;100925.41;694698;28;1485;-54
2021/09/18 00:12:22;;;;;;;26.60;23.98;;;;;;;12.76;95.69;100930.63;694921;28;1337;-55
2021/09/18 00:12:43;;;;;;;26.50;23.90;;;;;;;12.75;95.73;100921.91;694397;28;1335;-57
2021/09/18 00:13:03;;;;;;;26.17;23.60;;;;;;;12.76;96.00;100930.63;692946;28;5071;-56
2021/09/18 00:13:23;;;;;;;25.97;23.47;;;;;;;12.74;95.88;100927.16;694424;28;1093;-53
2021/09/18 00:13:44;;;;;;;26.75;24.10;;;;;;;12.74;96.09;100925.41;694321;28;1050;-55
2021/09/18 00:14:04;;;;;;;27.80;24.90;;;;;;;12.71;96.19;100925.44;694635;28;1142;-54
2021/09/18 00:14:25;;;;;;;28.42;25.50;;;;;;;12.66;96.23;100936.84;695049;28;1119;-54
2021/09/18 00:14:45;;;;;;;27.70;24.90;;;;;;;12.58;96.22;100929.91;694440;28;931;-56
2021/09/18 00:15:07;;;;;;;27.77;24.88;;;;;;;12.54;96.62;100930.81;694935;28;3428;-56
2021/09/18 00:15:30;;;;;;;28.70;25.70;;;;;;;12.52;96.81;100929.97;694582;28;1433;-54
2021/09/18 00:15:50;;;;;;;28.48;25.65;;;;;;;12.52;96.91;100922.09;694112;28;1512;-56
2021/09/18 00:16:11;;;;;;;29.17;26.13;;;;;;;12.51;97.01;100920.34;693782;28;4725;-54
2021/09/18 00:16:31;;;;;;;29.77;26.77;;;;;;;12.50;97.20;100926.50;694444;28;1220;-54
2021/09/18 00:16:51;;;;;;;28.85;25.98;;;;;;;12.47;97.48;100926.50;694732;28;1251;-54
2021/09/18 00:17:12;;;;;;;29.07;26.17;;;;;;;12.46;97.42;100929.16;694950;28;879;-55
2021/09/18 00:17:32;;;;;;;29.45;26.48;;;;;;;12.46;97.39;100923.91;694989;28;976;-54
2021/09/18 00:17:53;;;;;;;28.57;25.67;;;;;;;12.48;97.04;100925.63;694580;28;995;-56
2021/09/18 00:18:14;;;;;;;27.38;24.58;;;;;;;12.52;96.64;100929.09;694779;28;1059;-54
2021/09/18 00:18:34;;;;;;;28.88;25.90;;;;;;;12.54;96.59;100922.09;694213;28;3080;-53
2021/09/18 00:18:55;;;;;;;28.97;25.97;;;;;;;12.54;96.92;100922.94;693907;28;3708;-53
2021/09/18 00:19:16;;;;;;;28.63;25.80;;;;;;;12.55;97.10;100929.94;694030;28;4516;-56
2021/09/18 00:19:37;;;;;;;27.98;25.10;;;;;;;12.58;96.82;100927.28;693916;28;1557;-57
2021/09/18 00:19:58;;;;;;;27.58;24.77;;;;;;;12.59;97.11;100926.41;695029;28;1217;-55
2021/09/18 00:20:19;;;;;;;28.20;25.20;;;;;;;12.59;96.79;100921.16;694953;28;1164;-55
2021/09/18 00:20:39;;;;;;;27.27;24.37;;;;;;;12.65;96.54;100927.25;694627;28;1275;-53
2021/09/18 00:21:02;;;;;;;26.83;24.20;;;;;;;12.66;96.44;100926.38;695386;28;934;-52
2021/09/18 00:21:22;;;;;;;25.70;23.10;;;;;;;12.68;96.30;100924.59;695141;28;985;-56
2021/09/18 00:21:43;;;;;;;25.83;23.25;;;;;;;12.69;96.32;100932.44;694465;28;967;-55
2021/09/18 00:22:04;;;;;;;26.98;24.27;;;;;;;12.69;96.55;100931.56;693647;28;4505;-55
2021/09/18 00:22:24;;;;;;;27.07;24.37;;;;;;;12.67;96.39;100928.97;694657;28;1425;-56
2021/09/18 00:22:44;;;;;;;27.33;24.55;;;;;;;12.67;96.53;100928.97;694518;28;1323;-57
2021/09/18 00:23:05;;;;;;;27.87;25.07;;;;;;;12.64;96.59;100929.00;694915;28;1113;-55
2021/09/18 00:23:25;;;;;;;27.67;24.90;;;;;;;12.62;96.44;100932.53;694479;28;1342;-55
2021/09/18 00:23:45;;;;;;;26.77;24.07;;;;;;;12.63;96.48;100926.38;694847;28;1051;-52
2021/09/18 00:24:06;;;;;;;26.53;23.93;;;;;;;12.64;96.04;100928.13;695113;28;982;-55
2021/09/18 00:24:26;;;;;;;26.92;24.23;;;;;;;12.63;95.87;100924.63;694514;28;3847;-56
2021/09/18 00:24:47;;;;;;;26.67;23.90;;;;;;;12.64;95.64;100933.34;694812;28;1241;-57
2021/09/18 00:25:08;;;;;;;26.83;24.13;;;;;;;12.67;95.93;100928.97;694343;28;5215;-54
2021/09/18 00:25:28;;;;;;;25.80;23.23;;;;;;;12.71;95.34;100925.44;697871;28;2215;-57
2021/09/18 00:25:49;;;;;;;25.90;23.40;;;;;;;12.74;95.03;100925.41;696150;28;3687;-55
2021/09/18 00:26:09;;;;;;;25.65;23.13;;;;;;;12.75;95.13;100926.25;697532;28;1497;-54
2021/09/18 00:26:32;;;;;;;26.53;23.83;;;;;;;12.72;95.15;100926.28;697250;28;1472;-56
2021/09/18 00:26:52;;;;;;;27.13;24.33;;;;;;;12.68;95.45;100929.81;695696;28;1251;-55
2021/09/18 00:27:13;;;;;;;27.05;24.27;;;;;;;12.65;95.90;100927.25;697012;28;868;-57
2021/09/18 00:27:33;;;;;;;26.77;24.00;;;;;;;12.65;95.90;100929.88;697424;28;1391;-54
2021/09/18 00:27:54;;;;;;;26.67;24.00;;;;;;;12.65;96.07;100927.25;697195;28;887;-55
2021/09/18 00:28:14;;;;;;;26.93;24.23;;;;;;;12.64;95.90;100929.00;697067;28;4541;-54
2021/09/18 00:28:35;;;;;;;27.13;24.33;;;;;;;12.63;96.25;100931.63;696821;28;1340;-57
2021/09/18 00:28:56;;;;;;;27.90;25.00;;;;;;;12.62;96.21;100928.13;697316;28;3445;-56
2021/09/18 00:29:16;;;;;;;28.00;25.03;;;;;;;12.60;96.05;100929.91;697546;28;3147;-56
2021/09/18 00:29:37;;;;;;;28.02;25.13;;;;;;;12.57;96.04;100930.81;697580;28;1309;-55
2021/09/18 00:29:57;;;;;;;27.27;24.57;;;;;;;12.54;96.28;100928.19;697449;28;1142;-57
2021/09/18 00:30:17;;;;;;;26.40;23.77;;;;;;;12.57;96.37;100928.19;696094;28;1376;-51
2021/09/18 00:30:39;;;;;;;26.73;24.00;;;;;;;12.58;96.13;100922.03;697724;28;1411;-52
2021/09/18 00:30:59;;;;;;;27.05;24.45;;;;;;;12.60;96.03;100929.91;698097;28;1249;-55
2021/09/18 00:31:22;;;;;;;28.40;25.60;;;;;;;12.58;96.42;100929.91;695620;28;4689;-54
2021/09/18 00:31:43;;;;;;;28.08;25.27;;;;;;;12.57;96.50;100928.19;695351;28;1175;-54
2021/09/18 00:32:04;;;;;;;27.40;24.70;;;;;;;12.58;96.04;100924.66;695636;28;1065;-55
2021/09/18 00:32:24;;;;;;;27.80;24.90;;;;;;;12.55;96.67;100931.69;693468;28;3356;-57
2021/09/18 00:32:45;;;;;;;27.33;24.50;;;;;;;12.54;96.46;100927.31;694155;28;4027;-55
2021/09/18 00:33:05;;;;;;;27.10;24.40;;;;;;;12.55;96.41;100931.69;695049;28;1310;-54
2021/09/18 00:33:26;;;;;;;26.98;24.17;;;;;;;12.58;96.49;100924.66;695295;28;1117;-51
2021/09/18 00:33:46;;;;;;;27.07;24.27;;;;;;;12.60;96.05;100928.16;693718;28;1023;-53
2021/09/18 00:34:06;;;;;;;27.57;24.73;;;;;;;12.57;96.19;100925.56;694092;28;4538;-57
2021/09/18 00:34:27;;;;;;;26.92;24.17;;;;;;;12.58;95.94;100927.28;697985;28;954;-53
2021/09/18 00:34:47;;;;;;;27.30;24.50;;;;;;;12.57;96.22;100932.53;697424;28;1047;-57
2021/09/18 00:35:08;;;;;;;27.83;25.00;;;;;;;12.57;96.15;100930.81;698021;28;1035;-55
2021/09/18 00:35:29;;;;;;;28.10;25.08;;;;;;;12.55;96.58;100927.31;698042;28;1438;-57
2021/09/18 00:35:49;;;;;;;28.23;25.37;;;;;;;12.54;96.45;100925.56;697473;28;3101;-56
2021/09/18 00:36:09;;;;;;;29.45;26.45;;;;;;;12.50;96.64;100928.25;697801;28;3692;-55
2021/09/18 00:36:30;;;;;;;29.90;26.90;;;;;;;12.47;96.53;100923.03;698232;28;1078;-57
2021/09/18 00:36:51;;;;;;;30.58;27.50;;;;;;;12.44;96.70;100921.28;696130;28;1511;-57
2021/09/18 00:37:11;;;;;;;30.63;27.53;;;;;;;12.47;97.10;100933.50;697662;28;4326;-55
2021/09/18 00:37:31;;;;;;;30.75;27.65;;;;;;;12.44;97.15;100924.78;698108;28;1233;-55
2021/09/18 00:37:52;;;;;;;31.40;28.03;;;;;;;12.45;97.25;100923.03;697983;28;1149;-52
2021/09/18 00:38:13;;;;;;;32.17;28.73;;;;;;;12.44;97.51;100918.69;698260;28;1275;-55
2021/09/18 00:38:33;;;;;;;31.93;28.73;;;;;;;12.48;97.19;100923.00;698439;28;1244;-53
2021/09/18 00:38:53;;;;;;;31.03;27.83;;;;;;;12.50;97.06;100918.63;697071;28;1442;-57
2021/09/18 00:39:14;;;;;;;30.33;27.30;;;;;;;12.53;96.88;100923.84;698052;28;3250;-54
2021/09/18 00:39:34;;;;;;;29.48;26.60;;;;;;;12.54;96.48;100922.09;697565;28;3355;-54
2021/09/18 00:39:54;;;;;;;30.23;27.23;;;;;;;12.51;96.28;100920.34;698227;28;1351;-57
2021/09/18 00:40:15;;;;;;;31.27;28.07;;;;;;;12.49;96.71;100921.25;697236;28;4393;-55
2021/09/18 00:40:35;;;;;;;30.73;27.63;;;;;;;12.50;96.65;100920.38;697452;28;1256;-55
2021/09/18 00:40:57;;;;;;;31.00;27.90;;;;;;;12.51;96.38;100927.38;697889;28;964;-52
2021/09/18 00:41:17;;;;;;;30.17;27.17;;;;;;;12.50;96.56;100926.50;698185;28;1141;-55
2021/09/18 00:41:38;;;;;;;30.17;26.90;;;;;;;12.51;96.32;100920.34;697928;28;887;-53
2021/09/18 00:41:58;;;;;;;29.87;26.67;;;;;;;12.54;96.50;100922.94;698463;28;968;-53
2021/09/18 00:42:19;;;;;;;30.23;27.13;;;;;;;12.52;96.30;100924.72;697392;28;1122;-52
2021/09/18 00:42:39;;;;;;;31.83;28.53;;;;;;;12.53;96.43;100923.84;698345;28;1126;-54
2021/09/18 00:43:00;;;;;;;31.05;27.85;;;;;;;12.55;96.39;100927.31;697470;28;3386;-56
2021/09/18 00:43:21;;;;;;;31.30;28.03;;;;;;;12.52;96.74;100923.88;697312;28;4989;-52
2021/09/18 00:43:41;;;;;;;32.28;28.90;;;;;;;12.50;96.69;100923.00;697573;28;1231;-53
2021/09/18 00:44:02;;;;;;;30.83;27.73;;;;;;;12.50;96.54;100920.38;697986;28;1238;-52
2021/09/18 00:44:27;;;;;;;30.92;27.83;;;;;;;12.48;96.54;100922.16;698217;28;1227;-56
2021/09/18 00:44:50;;;;;;;32.13;28.83;;;;;;;12.43;96.73;100919.53;697239;28;1177;-52
2021/09/18 00:45:10;;;;;;;31.90;28.70;;;;;;;12.42;96.87;100921.31;697988;28;1077;-53
2021/09/18 00:45:31;;;;;;;32.10;28.80;;;;;;;12.40;97.17;100920.44;698370;28;1027;-54
2021/09/18 00:45:51;;;;;;;32.97;29.47;;;;;;;12.39;97.32;100917.84;697604;28;987;-53
2021/09/18 00:46:11;;;;;;;32.93;29.43;;;;;;;12.39;96.39;100918.72;696455;28;4539;-53
2021/09/18 00:46:32;;;;;;;31.90;28.50;;;;;;;12.41;96.61;100922.19;694365;28;3626;-52
2021/09/18 00:46:52;;;;;;;31.33;28.13;;;;;;;12.43;96.06;100924.78;694900;28;3112;-54
2021/09/18 00:47:13;;;;;;;30.53;27.33;;;;;;;12.48;96.05;100927.41;694693;28;1249;-55
2021/09/18 00:47:33;;;;;;;31.02;27.73;;;;;;;12.53;95.85;100921.22;694526;28;1260;-55
2021/09/18 00:47:53;;;;;;;31.07;27.97;;;;;;;12.57;95.35;100925.56;692998;28;1012;-57
2021/09/18 00:48:14;;;;;;;31.08;27.92;;;;;;;12.60;94.68;100920.28;695692;28;1348;-53
2021/09/18 00:48:34;;;;;;;31.30;28.00;;;;;;;12.62;94.74;100920.25;695458;28;1272;-56
2021/09/18 00:48:55;;;;;;;31.83;28.45;;;;;;;12.63;94.83;100924.63;692401;28;1914;-55
2021/09/18 00:49:15;;;;;;;31.87;28.50;;;;;;;12.64;94.83;100920.25;693846;28;4484;-52
2021/09/18 00:49:35;;;;;;;31.53;28.23;;;;;;;12.61;94.84;100926.38;694677;28;1003;-54
2021/09/18 00:49:56;;;;;;;31.83;28.55;;;;;;;12.55;95.37;100922.06;693904;28;3762;-53
2021/09/18 00:50:16;;;;;;;33.93;30.33;;;;;;;12.51;95.43;100922.97;692284;28;1540;-52
2021/09/18 00:50:36;;;;;;;34.17;30.58;;;;;;;12.48;95.48;100923.00;694698;28;1566;-52
2021/09/18 00:50:57;;;;;;;33.90;30.30;;;;;;;12.43;95.51;100925.69;692052;28;1107;-54
2021/09/18 00:51:18;;;;;;;34.03;30.50;;;;;;;12.37;96.30;100919.63;691955;28;960;-52
2021/09/18 00:51:39;;;;;;;34.92;31.27;;;;;;;12.33;96.47;100921.38;692001;28;1194;-55
2021/09/18 00:52:00;;;;;;;36.55;32.75;;;;;;;12.26;96.12;100920.56;692627;28;1071;-53
2021/09/18 00:52:21;;;;;;;35.65;31.92;;;;;;;12.21;96.42;100918.84;697117;28;5448;-57
2021/09/18 00:52:41;;;;;;;35.42;31.60;;;;;;;12.18;96.86;100921.50;697989;28;1298;-53
2021/09/18 00:53:02;;;;;;;35.87;32.07;;;;;;;12.15;96.96;100919.75;698147;28;1375;-54
2021/09/18 00:53:23;;;;;;;36.03;32.15;;;;;;;12.14;96.97;100917.16;697169;28;3174;-51
2021/09/18 00:53:44;;;;;;;37.10;33.13;;;;;;;12.16;97.68;100918.03;696230;28;1199;-56
2021/09/18 00:54:05;;;;;;;36.20;32.30;;;;;;;12.19;97.49;100925.88;697794;28;1387;-53
2021/09/18 00:54:26;;;;;;;37.00;33.03;;;;;;;12.18;97.72;100914.50;697308;28;1406;-52
2021/09/18 00:54:47;;;;;;;36.40;32.50;;;;;;;12.21;97.61;100924.09;696167;28;1374;-57
2021/09/18 00:55:08;;;;;;;37.28;33.20;;;;;;;12.22;97.25;100921.44;697574;28;4467;-51
2021/09/18 00:55:30;;;;;;;36.60;32.58;;;;;;;12.22;97.61;100925.84;698316;28;1047;-57
2021/09/18 00:55:51;;;;;;;36.97;32.92;;;;;;;12.21;96.91;100922.34;697793;28;1134;-54
2021/09/18 00:56:12;;;;;;;36.87;32.87;;;;;;;12.17;97.68;100925.88;697647;28;3496;-53
2021/09/18 00:56:32;;;;;;;37.50;33.50;;;;;;;12.17;97.56;100922.38;697799;28;2049;-51
2021/09/18 00:56:54;;;;;;;38.03;34.03;;;;;;;12.16;97.34;100921.50;697785;28;1124;-56
2021/09/18 00:57:16;;;;;;;37.75;33.75;;;;;;;12.14;97.44;100920.63;697058;28;1311;-54
2021/09/18 00:57:36;;;;;;;37.65;33.63;;;;;;;12.13;98.27;100924.16;696587;28;1717;-55
2021/09/18 00:57:57;;;;;;;38.47;34.05;;;;;;;12.14;98.08;100923.25;698315;28;1059;-53
2021/09/18 00:58:17;;;;;;;37.70;33.03;;;;;;;12.16;97.54;100921.50;697534;28;4289;-56
2021/09/18 00:58:38;;;;;;;36.88;32.85;;;;;;;12.20;96.96;100922.38;698128;28;1268;-51
2021/09/18 00:58:58;;;;;;;37.00;33.00;;;;;;;12.24;96.97;100921.47;697875;28;1032;-54
2021/09/18 00:59:20;;;;;;;35.57;31.73;;;;;;;12.26;96.90;100923.16;698428;28;1174;-52
2021/09/18 00:59:42;;;;;;;34.92;31.20;;;;;;;12.30;96.57;100925.78;696603;28;1226;-54
2021/09/18 01:00:05;;;;;;;35.63;31.73;;;;;;;12.30;96.56;100925.78;697138;28;3413;-53
2021/09/18 01:00:26;;;;;;;35.05;31.33;;;;;;;12.32;96.15;100922.25;694916;28;1319;-53
2021/09/18 01:00:46;;;;;;;35.15;31.45;;;;;;;12.33;96.38;100924.00;694742;28;1262;-53
2021/09/18 01:01:07;;;;;;;35.23;31.43;;;;;;;12.35;96.24;100926.59;694795;28;4435;-54
2021/09/18 01:01:27;;;;;;;34.55;30.85;;;;;;;12.36;96.09;100925.72;694949;28;979;-53
2021/09/18 01:01:47;;;;;;;35.00;31.20;;;;;;;12.34;96.70;100924.88;694497;28;1053;-52
2021/09/18 01:02:09;;;;;;;35.45;31.75;;;;;;;12.35;96.39;100926.59;695328;28;1178;-55
2021/09/18 01:02:30;;;;;;;35.03;31.33;;;;;;;12.35;96.56;100927.50;695567;28;1067;-54
2021/09/18 01:02:50;;;;;;;35.03;31.13;;;;;;;12.35;96.40;100924.88;694988;28;1177;-55
2021/09/18 01:03:11;;;;;;;35.45;31.70;;;;;;;12.33;96.22;100924.00;694875;28;1199;-54
2021/09/18 01:03:31;;;;;;;35.13;31.43;;;;;;;12.34;96.10;100930.13;694857;28;3746;-54
2021/09/18 01:03:51;;;;;;;34.70;31.00;;;;;;;12.34;96.08;100927.50;693866;28;1393;-53
2021/09/18 01:04:12;;;;;;;34.33;30.63;;;;;;;12.33;96.43;100923.13;694612;28;4987;-54
2021/09/18 01:04:32;;;;;;;37.07;31.73;;;;;;;12.32;96.61;100924.00;696580;28;1774;-51
2021/09/18 01:04:53;;;;;;;36.95;32.40;;;;;;;12.32;96.42;100926.63;694236;28;1521;-52
2021/09/18 01:05:13;;;;;;;34.43;30.87;;;;;;;12.31;96.59;100923.16;695357;28;1062;-57
2021/09/18 01:05:35;;;;;;;33.90;30.40;;;;;;;12.28;97.08;100928.44;695410;28;1051;-54
2021/09/18 01:05:57;;;;;;;34.20;30.60;;;;;;;12.27;96.78;100924.06;695102;28;1205;-52
2021/09/18 01:06:19;;;;;;;33.50;29.90;;;;;;;12.26;97.11;100917.94;695120;28;1377;-52
2021/09/18 01:06:39;;;;;;;33.47;29.98;;;;;;;12.25;96.64;100921.44;694488;28;1154;-54
2021/09/18 01:07:00;;;;;;;33.27;29.87;;;;;;;12.27;96.75;100922.28;694567;28;5154;-55
2021/09/18 01:07:20;;;;;;;32.85;29.45;;;;;;;12.31;96.32;100920.53;694180;28;4951;-54
2021/09/18 01:07:41;;;;;;;32.83;29.33;;;;;;;12.32;96.30;100922.25;693695;28;1287;-51
2021/09/18 01:08:03;;;;;;;32.78;29.35;;;;;;;12.34;96.40;100924.88;693538;28;1304;-54
2021/09/18 01:08:26;;;;;;;33.05;29.65;;;;;;;12.33;96.44;100920.50;695673;28;1407;-53
2021/09/18 01:08:53;;;;;;;32.55;29.35;;;;;;;12.33;96.41;100917.91;697067;28;1097;-54
2021/09/18 01:09:14;;;;;;;32.20;28.90;;;;;;;12.35;96.30;100921.34;696939;28;1041;-52
2021/09/18 01:09:35;;;;;;;31.85;28.55;;;;;;;12.38;95.84;100918.75;696187;28;1009;-56
2021/09/18 01:09:56;;;;;;;30.95;27.67;;;;;;;12.40;96.14;100927.44;696930;28;1061;-53
2021/09/18 01:10:16;;;;;;;30.40;27.20;;;;;;;12.39;95.94;100925.69;700236;28;4373;-55
2021/09/18 01:10:38;;;;;;;31.67;28.37;;;;;;;12.38;96.31;100924.84;702600;28;3609;-53
2021/09/18 01:10:58;;;;;;;32.03;28.63;;;;;;;12.36;96.38;100917.88;702265;28;1247;-57
2021/09/18 01:11:18;;;;;;;31.40;28.20;;;;;;;12.33;96.34;100923.13;703196;28;1311;-54
2021/09/18 01:11:39;;;;;;;30.67;27.57;;;;;;;12.32;96.04;100926.63;702106;28;1358;-54
2021/09/18 01:12:03;;;;;;;31.23;28.00;;;;;;;12.32;96.05;100926.63;703088;28;1019;-55
2021/09/18 01:12:24;;;;;;;30.58;27.38;;;;;;;12.32;95.64;100926.63;698267;28;1138;-53
2021/09/18 01:13:11;;;;;;;30.03;26.93;;;;;;;12.33;96.14;100923.13;697784;28;980;-53
2021/09/18 01:13:34;;;;;;;30.05;27.02;;;;;;;12.34;95.77;100928.38;697565;28;4777;-56
2021/09/18 01:13:54;;;;;;;29.60;26.50;;;;;;;12.36;95.82;100921.34;696348;28;3802;-56
2021/09/18 01:14:15;;;;;;;28.77;25.77;;;;;;;12.40;95.42;100928.31;696895;28;1101;-51
2021/09/18 01:14:35;;;;;;;29.13;26.23;;;;;;;12.40;95.63;100928.31;694487;28;1321;-53
2021/09/18 01:14:56;;;;;;;28.97;26.07;;;;;;;12.39;95.71;100928.31;694485;28;1503;-56
2021/09/18 01:15:16;;;;;;;30.13;27.03;;;;;;;12.39;95.36;100923.06;695444;28;1290;-52
2021/09/18 01:15:38;;;;;;;29.40;26.40;;;;;;;12.39;95.54;100930.94;695173;28;1151;-55
2021/09/18 01:16:00;;;;;;;30.23;27.10;;;;;;;12.34;96.00;100928.38;698074;28;1083;-52
2021/09/18 01:16:22;;;;;;;30.33;27.10;;;;;;;12.31;96.35;100930.13;696494;28;4894;-54
2021/09/18 01:16:42;;;;;;;30.92;27.08;;;;;;;12.26;96.50;100931.03;697067;28;1296;-53
2021/09/18 01:17:02;;;;;;;31.38;28.08;;;;;;;12.24;96.33;100927.56;698095;28;1321;-52
2021/09/18 01:17:23;;;;;;;31.17;27.87;;;;;;;12.23;96.51;100927.59;697144;28;3672;-56
2021/09/18 01:17:43;;;;;;;30.52;27.33;;;;;;;12.23;96.88;100923.19;697806;28;3531;-53
2021/09/18 01:18:06;;;;;;;30.53;27.40;;;;;;;12.25;96.33;100923.19;697800;28;982;-57
2021/09/18 01:18:27;;;;;;;30.77;27.67;;;;;;;12.24;95.97;100927.56;697421;28;1030;-51
2021/09/18 01:18:47;;;;;;;30.47;27.47;;;;;;;12.25;96.44;100924.06;697404;28;1371;-57
2021/09/18 01:19:08;;;;;;;31.15;28.05;;;;;;;12.25;96.57;100924.06;697317;28;4475;-52
2021/09/18 01:19:31;;;;;;;30.98;27.75;;;;;;;12.24;96.21;100930.19;697970;28;1143;-51
2021/09/18 01:19:51;;;;;;;30.23;27.02;;;;;;;12.24;95.99;100930.19;697252;28;1217;-52
2021/09/18 01:20:12;;;;;;;29.03;26.10;;;;;;;12.26;96.04;100928.41;698091;28;1138;-52
2021/09/18 01:20:34;;;;;;;29.58;26.58;;;;;;;12.25;95.87;100921.44;697766;28;1142;-52
2021/09/18 01:20:54;;;;;;;30.10;26.90;;;;;;;12.22;95.81;100924.06;697071;28;3766;-54
2021/09/18 01:21:19;;;;;;;30.03;26.87;;;;;;;12.23;95.79;100924.97;696798;28;1163;-57
2021/09/18 01:21:39;;;;;;;29.55;26.50;;;;;;;12.27;96.08;100926.69;696739;28;1300;-54
2021/09/18 01:22:02;;;;;;;28.50;25.63;;;;;;;12.30;95.63;100918.78;697638;28;1245;-53
2021/09/18 01:22:26;;;;;;;28.77;25.77;;;;;;;12.31;95.79;100925.78;697198;28;4804;-55
2021/09/18 01:22:47;;;;;;;28.27;25.33;;;;;;;12.30;95.58;100923.16;697307;28;1330;-53
2021/09/18 01:23:09;;;;;;;28.67;25.63;;;;;;;12.30;95.88;100920.56;697904;28;1146;-52
2021/09/18 01:23:30;;;;;;;28.15;25.33;;;;;;;12.29;95.68;100924.03;697898;28;1021;-55
2021/09/18 01:23:50;;;;;;;29.03;26.13;;;;;;;12.31;95.51;100923.16;696754;28;1025;-53
2021/09/18 01:24:10;;;;;;;27.95;25.10;;;;;;;12.27;95.51;100922.28;698373;28;1157;-55
2021/09/18 01:24:31;;;;;;;27.83;24.93;;;;;;;12.29;94.98;100918.81;696744;28;3793;-54
2021/09/18 01:24:51;;;;;;;27.73;24.90;;;;;;;12.31;95.54;100919.63;697326;28;1231;-54
2021/09/18 01:25:12;;;;;;;27.60;24.83;;;;;;;12.29;94.92;100926.66;697079;28;4512;-52
2021/09/18 01:25:35;;;;;;;27.33;24.50;;;;;;;12.30;95.23;100917.94;698182;28;1186;-54
2021/09/18 01:25:56;;;;;;;28.00;25.10;;;;;;;12.29;95.31;100921.41;697903;28;1291;-53
2021/09/18 01:26:16;;;;;;;27.43;24.53;;;;;;;12.29;95.28;100921.41;697942;28;1050;-55
2021/09/18 01:26:40;;;;;;;27.20;24.40;;;;;;;12.29;96.00;100922.28;697922;28;1137;-52
2021/09/18 01:27:01;;;;;;;28.73;25.67;;;;;;;12.26;96.21;100915.31;697919;28;1097;-57
2021/09/18 01:27:21;;;;;;;29.10;26.02;;;;;;;12.22;96.23;100916.22;698358;28;1110;-54
2021/09/18 01:27:46;;;;;;;29.47;26.37;;;;;;;12.16;96.32;100929.38;697540;28;2634;-55
2021/09/18 01:28:07;;;;;;;29.98;26.88;;;;;;;12.09;96.85;100919.81;696451;28;4835;-52
2021/09/18 01:28:27;;;;;;;30.92;27.70;;;;;;;12.06;97.12;100919.84;697296;28;1316;-54
2021/09/18 01:28:47;;;;;;;29.70;26.63;;;;;;;12.05;96.89;100921.59;696753;28;1616;-60
2021/09/18 01:29:09;;;;;;;29.33;26.25;;;;;;;12.09;96.87;100925.06;697873;28;1988;-54
2021/09/18 01:29:30;;;;;;;29.45;26.40;;;;;;;12.08;96.95;100923.31;697791;28;1150;-53
2021/09/18 01:29:51;;;;;;;29.95;26.83;;;;;;;12.07;96.75;100916.31;697881;28;1082;-52
2021/09/18 01:30:24;;;;;;;29.93;26.93;;;;;;;12.04;96.96;100918.97;697515;28;1294;-52
2021/09/18 01:30:45;;;;;;;29.67;26.67;;;;;;;12.02;96.69;100924.22;696891;28;1025;-57
2021/09/18 01:31:07;;;;;;;28.73;25.63;;;;;;;12.06;96.65;100919.84;697482;28;4482;-52
2021/09/18 01:31:27;;;;;;;28.00;25.02;;;;;;;12.10;96.45;100921.53;696357;28;3814;-55
2021/09/18 01:31:48;;;;;;;27.17;24.35;;;;;;;12.12;96.14;100919.78;697343;28;1171;-52
2021/09/18 01:32:08;;;;;;;27.67;24.80;;;;;;;12.14;95.69;100919.78;697291;28;1348;-52
2021/09/18 01:32:29;;;;;;;28.63;25.73;;;;;;;12.12;95.95;100914.56;697797;28;1534;-55
2021/09/18 01:32:51;;;;;;;27.95;25.10;;;;;;;12.14;95.92;100919.78;697361;28;1355;-52
2021/09/18 01:33:11;;;;;;;27.42;24.63;;;;;;;12.16;96.01;100913.66;698027;28;1141;-53
2021/09/18 01:33:31;;;;;;;27.33;24.52;;;;;;;12.17;96.06;100920.63;698154;28;1062;-55
2021/09/18 01:33:52;;;;;;;27.87;24.97;;;;;;;12.17;96.00;100922.38;697145;28;1233;-56
2021/09/18 01:34:21;;;;;;;28.30;25.30;;;;;;;12.17;95.58;100917.13;697460;28;4463;-54
2021/09/18 01:34:41;;;;;;;26.88;24.08;;;;;;;12.19;95.44;100925.88;697031;28;3219;-55
2021/09/18 01:35:01;;;;;;;27.30;24.47;;;;;;;12.21;95.66;100919.75;696779;28;3744;-53
2021/09/18 01:35:23;;;;;;;27.10;24.40;;;;;;;12.22;95.27;100923.22;697684;28;1229;-53
2021/09/18 01:35:43;;;;;;;25.88;23.27;;;;;;;12.23;95.26;100920.56;696064;28;1242;-52
2021/09/18 01:36:04;;;;;;;27.13;24.27;;;;;;;12.22;95.06;100916.22;697351;28;1479;-57
2021/09/18 01:36:24;;;;;;;28.25;25.35;;;;;;;12.21;95.19;100921.47;697608;28;1249;-53
2021/09/18 01:36:44;;;;;;;28.30;25.40;;;;;;;12.20;95.47;100933.72;697301;28;1257;-54
2021/09/18 01:37:05;;;;;;;27.80;24.80;;;;;;;12.19;95.44;100920.63;696267;28;4889;-52
2021/09/18 01:37:27;;;;;;;27.67;24.80;;;;;;;12.17;95.81;100923.25;695626;28;1120;-54
2021/09/18 01:37:47;;;;;;;27.65;24.85;;;;;;;12.16;96.07;100920.66;694927;28;1245;-55